Alameda, Canada
Current Conditions -  °F | °C
As of 3:00 PM on Monday 20 Oct 2014 (Local Time) from CYEN Reporting Station
Few Clouds Few Clouds  
Wind Chill: 73°   Ceiling: Unl
Heat Index: 73°   Visibility: 15mi
Dew Point: 41°   Wind: 15mph
Humidity: 31%   Direction: 170°S
Pressure: 29.85"   Gusts: 23mph
Location:  49.27°N, 102.28°W
Report Text: CYEN 202100Z 17013G20KT 15SM FEW240 23/05 A2985 RMK CI1 SLP116
Loading
Personal Weather Stations






























Interactive Weather Map
Tropical Storm Tracking
New forecast layout! Learn more

10-Day Weather Forecast

Advertisements
Track Severe Weather on mobile